Time;durP1;ratioP1;P1;durP2;ratioP2;P2;SDS_P1;SDS_P2;PMS_P1;PMS_P2;Temp;Humidity;BMP_temperature;BMP_pressure;BME280_temperature;BME280_humidity;BME280_pressure;Samples;Min_cycle;Max_cycle;Signal;HPM_P1;HPM_P2
2022/06/17 00:00:24;;;;;;;;;;;18.80;93.50;;;;;;5084774;28;19955;-72
2022/06/17 00:02:51;;;;;;;;;;;18.80;93.60;;;;;;5084813;28;19963;-72
2022/06/17 00:05:18;;;;;;;;;;;18.70;93.70;;;;;;5084669;28;19963;-71
2022/06/17 00:07:45;;;;;;;;;;;18.70;93.70;;;;;;5084790;28;19946;-72
2022/06/17 00:10:19;;;;;;;;;;;18.60;93.90;;;;;;5084781;28;19920;-71
2022/06/17 00:12:45;;;;;;;;;;;18.60;94.20;;;;;;5083914;28;19959;-72
2022/06/17 00:15:15;;;;;;;;;;;18.60;94.30;;;;;;5084682;28;19935;-71
2022/06/17 00:17:43;;;;;;;;;;;18.50;94.30;;;;;;5084710;28;19944;-72
2022/06/17 00:20:12;;;;;;;;;;;18.50;94.50;;;;;;5084577;28;19992;-71
2022/06/17 00:22:40;;;;;;;;;;;18.50;94.50;;;;;;5084617;28;19984;-71
2022/06/17 00:25:11;;;;;;;;;;;18.40;94.60;;;;;;5084257;28;19920;-72
2022/06/17 00:27:39;;;;;;;;;;;18.40;94.70;;;;;;5084274;28;19927;-71
2022/06/17 00:30:07;;;;;;;;;;;18.40;94.70;;;;;;5084673;28;19988;-72
2022/06/17 00:32:33;;;;;;;;;;;18.30;94.70;;;;;;5084293;28;20171;-71
2022/06/17 00:35:00;;;;;;;;;;;18.20;94.50;;;;;;5084420;28;19979;-72
2022/06/17 00:37:27;;;;;;;;;;;18.20;94.70;;;;;;5084017;28;20124;-72
2022/06/17 00:39:53;;;;;;;;;;;18.10;95.00;;;;;;5083910;28;19920;-72
2022/06/17 00:42:21;;;;;;;;;;;18.10;95.20;;;;;;5083965;28;19926;-72
2022/06/17 00:44:52;;;;;;;;;;;18.00;95.20;;;;;;5084117;28;20176;-72
2022/06/17 00:47:24;;;;;;;;;;;18.00;95.40;;;;;;5083749;28;19962;-72
2022/06/17 00:49:53;;;;;;;;;;;18.00;95.70;;;;;;5083898;28;19927;-72
2022/06/17 00:52:22;;;;;;;;;;;18.00;95.70;;;;;;5082856;28;19963;-71
2022/06/17 00:54:52;;;;;;;;;;;17.90;95.60;;;;;;5083696;28;19921;-71
2022/06/17 00:57:21;;;;;;;;;;;17.90;95.60;;;;;;5083937;28;19959;-72
2022/06/17 01:00:02;;;;;;;;;;;17.80;95.60;;;;;;5083969;28;20003;-72
2022/06/17 01:02:30;;;;;;;;;;;17.70;95.50;;;;;;5083703;28;19958;-71
2022/06/17 01:04:56;;;;;;;;;;;17.70;95.70;;;;;;5083538;28;20119;-71
2022/06/17 01:07:25;;;;;;;;;;;17.70;95.90;;;;;;5083553;28;19955;-71
2022/06/17 01:10:00;;;;;;;;;;;17.70;96.20;;;;;;5083862;28;19955;-72
2022/06/17 01:12:29;;;;;;;;;;;17.60;96.30;;;;;;5082767;28;19927;-71
2022/06/17 01:14:56;;;;;;;;;;;17.60;96.40;;;;;;5083521;28;19927;-71
2022/06/17 01:17:25;;;;;;;;;;;17.60;96.60;;;;;;5082155;28;19952;-72
2022/06/17 01:19:53;;;;;;;;;;;17.60;96.70;;;;;;5083266;28;19987;-72
2022/06/17 01:22:25;;;;;;;;;;;17.60;96.80;;;;;;5083369;28;20196;-72
2022/06/17 01:24:53;;;;;;;;;;;17.50;96.90;;;;;;5083520;28;19928;-72
2022/06/17 01:27:21;;;;;;;;;;;17.50;96.90;;;;;;5083108;28;19947;-72
2022/06/17 01:29:48;;;;;;;;;;;17.40;97.00;;;;;;5083388;28;19927;-71
2022/06/17 01:32:16;;;;;;;;;;;17.30;97.20;;;;;;5083345;28;19951;-72
2022/06/17 01:34:43;;;;;;;;;;;17.30;97.40;;;;;;5083235;28;19987;-72
2022/06/17 01:37:10;;;;;;;;;;;17.30;97.50;;;;;;5083174;28;19975;-71
2022/06/17 01:39:37;;;;;;;;;;;17.20;97.50;;;;;;5083349;28;19999;-72
2022/06/17 01:42:06;;;;;;;;;;;17.20;97.70;;;;;;5120871;22;20233;-88
2022/06/17 01:44:35;;;;;;;;;;;17.10;97.70;;;;;;5124421;28;20233;-89
2022/06/17 01:47:04;;;;;;;;;;;17.00;97.80;;;;;;5124240;28;19920;-88
2022/06/17 01:49:33;;;;;;;;;;;16.90;97.90;;;;;;5124200;28;20253;-89
2022/06/17 01:52:02;;;;;;;;;;;16.80;98.10;;;;;;5124261;28;20202;-89
2022/06/17 01:54:30;;;;;;;;;;;16.70;98.20;;;;;;5124390;28;19943;-89
2022/06/17 01:56:58;;;;;;;;;;;16.70;98.40;;;;;;5124286;28;20178;-89
2022/06/17 01:59:29;;;;;;;;;;;16.70;98.40;;;;;;5124858;28;20178;-89
2022/06/17 02:01:58;;;;;;;;;;;16.70;98.60;;;;;;5124781;28;19920;-89
2022/06/17 02:04:26;;;;;;;;;;;16.70;98.80;;;;;;5124768;28;19920;-89
2022/06/17 02:06:57;;;;;;;;;;;16.60;98.70;;;;;;5128183;28;19930;-89
2022/06/17 02:09:23;;;;;;;;;;;16.50;98.70;;;;;;5127101;28;19920;-89
2022/06/17 02:11:50;;;;;;;;;;;16.50;98.90;;;;;;5124046;28;19920;-90
2022/06/17 02:14:17;;;;;;;;;;;16.50;99.10;;;;;;5125122;28;19919;-90
2022/06/17 02:16:48;;;;;;;;;;;16.50;99.20;;;;;;5124151;28;19919;-91
2022/06/17 02:19:15;;;;;;;;;;;16.40;99.20;;;;;;5124768;28;19927;-89
2022/06/17 02:21:43;;;;;;;;;;;16.30;99.30;;;;;;5124493;28;19920;-89
2022/06/17 02:24:11;;;;;;;;;;;16.30;99.50;;;;;;5124201;28;20215;-91
2022/06/17 02:26:38;;;;;;;;;;;16.20;99.80;;;;;;5124565;28;20211;-89
2022/06/17 02:29:06;;;;;;;;;;;16.10;99.90;;;;;;5124727;28;20119;-90
2022/06/17 02:31:34;;;;;;;;;;;16.10;99.90;;;;;;5125383;28;19926;-90
2022/06/17 02:34:02;;;;;;;;;;;16.00;99.90;;;;;;5128489;28;19920;-91
2022/06/17 02:36:32;;;;;;;;;;;16.00;99.90;;;;;;5127738;28;19926;-91
2022/06/17 02:38:59;;;;;;;;;;;15.90;99.90;;;;;;5127930;28;20174;-90
2022/06/17 02:41:27;;;;;;;;;;;15.90;99.90;;;;;;5127508;28;19986;-89
2022/06/17 02:43:57;;;;;;;;;;;15.90;99.90;;;;;;5127837;28;19919;-90
2022/06/17 02:46:27;;;;;;;;;;;15.80;99.90;;;;;;5127220;28;20215;-89
2022/06/17 02:48:55;;;;;;;;;;;15.80;99.90;;;;;;5127634;28;19926;-89
2022/06/17 02:51:24;;;;;;;;;;;15.80;99.90;;;;;;5127246;28;19919;-89
2022/06/17 02:53:51;;;;;;;;;;;15.70;99.90;;;;;;5127294;28;19920;-90
2022/06/17 02:56:20;;;;;;;;;;;15.60;99.90;;;;;;5127181;28;20178;-90
2022/06/17 02:58:51;;;;;;;;;;;15.60;99.90;;;;;;5127532;28;19920;-90
2022/06/17 03:01:19;;;;;;;;;;;15.50;99.90;;;;;;5127448;28;20100;-88
2022/06/17 03:03:46;;;;;;;;;;;15.50;99.90;;;;;;5127368;28;20174;-89
2022/06/17 03:06:16;;;;;;;;;;;15.40;99.90;;;;;;5127082;28;19920;-89
2022/06/17 03:08:46;;;;;;;;;;;15.30;99.90;;;;;;5127062;28;19950;-90
2022/06/17 03:11:13;;;;;;;;;;;15.30;99.90;;;;;;5126805;28;19926;-89
2022/06/17 03:13:41;;;;;;;;;;;15.30;99.90;;;;;;5126339;28;19943;-91
2022/06/17 03:16:11;;;;;;;;;;;15.20;99.90;;;;;;5126872;28;19920;-90
2022/06/17 03:18:37;;;;;;;;;;;15.20;99.90;;;;;;5127244;28;19920;-89
2022/06/17 03:21:06;;;;;;;;;;;15.10;99.90;;;;;;5126966;28;19927;-90
2022/06/17 03:23:34;;;;;;;;;;;15.10;99.90;;;;;;5126657;28;19919;-88
2022/06/17 03:26:04;;;;;;;;;;;15.10;99.90;;;;;;5126312;28;20122;-90
2022/06/17 03:28:33;;;;;;;;;;;15.00;99.90;;;;;;5126454;28;19919;-90
2022/06/17 03:31:02;;;;;;;;;;;15.00;99.90;;;;;;5126464;28;19928;-90
2022/06/17 03:33:32;;;;;;;;;;;15.00;99.90;;;;;;5126323;28;19958;-90
2022/06/17 03:36:02;;;;;;;;;;;14.90;99.90;;;;;;5126275;28;20153;-89
2022/06/17 03:38:30;;;;;;;;;;;14.90;99.90;;;;;;5126427;28;19950;-89
2022/06/17 03:41:00;;;;;;;;;;;14.90;99.90;;;;;;5126805;28;19928;-89
2022/06/17 03:43:30;;;;;;;;;;;14.90;99.90;;;;;;5126488;28;20158;-90
2022/06/17 03:45:59;;;;;;;;;;;14.90;99.90;;;;;;5125893;28;19986;-90
2022/06/17 03:48:28;;;;;;;;;;;14.90;99.90;;;;;;5126158;28;20111;-90
2022/06/17 03:50:55;;;;;;;;;;;14.80;99.90;;;;;;5126428;28;19927;-88
2022/06/17 03:53:26;;;;;;;;;;;14.80;99.90;;;;;;5126198;28;20222;-89
2022/06/17 03:55:54;;;;;;;;;;;14.70;99.90;;;;;;5125740;28;19928;-90
2022/06/17 03:58:21;;;;;;;;;;;14.70;99.90;;;;;;5126031;28;19920;-90
2022/06/17 04:00:52;;;;;;;;;;;14.60;99.90;;;;;;5126062;28;19920;-89
2022/06/17 04:03:20;;;;;;;;;;;14.60;99.90;;;;;;5126195;28;19926;-89
2022/06/17 04:05:49;;;;;;;;;;;14.60;99.90;;;;;;5125740;28;20226;-90
2022/06/17 04:08:16;;;;;;;;;;;14.60;99.90;;;;;;5126265;28;19920;-89
2022/06/17 04:10:43;;;;;;;;;;;14.70;99.90;;;;;;5126034;28;19920;-90
2022/06/17 04:13:13;;;;;;;;;;;14.70;99.90;;;;;;5125613;28;19927;-89
2022/06/17 04:15:42;;;;;;;;;;;14.80;99.90;;;;;;5125864;28;19919;-90
2022/06/17 04:18:10;;;;;;;;;;;14.80;99.90;;;;;;5126739;28;19943;-88
2022/06/17 04:20:40;;;;;;;;;;;14.80;99.90;;;;;;5127940;28;19935;-90
2022/06/17 04:23:08;;;;;;;;;;;14.80;99.90;;;;;;5126198;28;19928;-90
2022/06/17 04:25:37;;;;;;;;;;;14.90;99.90;;;;;;5125543;28;20231;-90
2022/06/17 04:28:07;;;;;;;;;;;15.00;99.90;;;;;;5126039;28;19927;-89
2022/06/17 04:30:36;;;;;;;;;;;15.10;99.90;;;;;;5125569;28;19955;-90
2022/06/17 04:33:05;;;;;;;;;;;15.10;99.90;;;;;;5125746;28;19943;-89
2022/06/17 04:35:34;;;;;;;;;;;15.20;99.90;;;;;;5136192;28;19990;-92
2022/06/17 04:38:01;;;;;;;;;;;15.30;99.90;;;;;;5135661;28;19919;-88
2022/06/17 04:40:32;;;;;;;;;;;15.30;99.90;;;;;;5133558;28;20142;-90
2022/06/17 04:42:59;;;;;;;;;;;15.40;99.90;;;;;;5132649;28;19942;-90
2022/06/17 04:45:27;;;;;;;;;;;15.50;99.90;;;;;;5134425;28;20143;-88
2022/06/17 04:47:54;;;;;;;;;;;15.60;99.90;;;;;;5134843;28;19920;-89
2022/06/17 04:50:23;;;;;;;;;;;15.70;99.90;;;;;;5130029;28;19931;-89
2022/06/17 04:52:51;;;;;;;;;;;15.70;99.90;;;;;;5127101;28;19923;-88
2022/06/17 04:55:19;;;;;;;;;;;15.70;99.90;;;;;;5136351;28;20115;-90
2022/06/17 04:57:47;;;;;;;;;;;15.80;99.90;;;;;;5133377;28;19920;-89
2022/06/17 05:00:16;;;;;;;;;;;15.80;99.90;;;;;;5136494;28;19945;-89
2022/06/17 05:02:43;;;;;;;;;;;15.90;99.90;;;;;;5134527;28;19911;-88
2022/06/17 05:05:15;;;;;;;;;;;16.00;99.90;;;;;;5127603;28;19972;-89
2022/06/17 05:07:44;;;;;;;;;;;16.10;99.90;;;;;;5133846;28;19942;-88
2022/06/17 05:10:16;;;;;;;;;;;16.20;99.90;;;;;;5129418;28;19964;-91
2022/06/17 05:12:45;;;;;;;;;;;16.20;99.90;;;;;;5135070;28;19908;-88
2022/06/17 05:15:14;;;;;;;;;;;16.40;99.90;;;;;;5135232;28;20157;-88
2022/06/17 05:17:40;;;;;;;;;;;16.50;99.90;;;;;;5133696;28;19930;-88
2022/06/17 05:20:09;;;;;;;;;;;16.60;99.90;;;;;;5134272;28;19920;-91
2022/06/17 05:22:37;;;;;;;;;;;16.70;99.90;;;;;;5135100;28;19920;-90
2022/06/17 05:25:06;;;;;;;;;;;16.70;99.90;;;;;;5135412;28;19920;-89
2022/06/17 05:27:34;;;;;;;;;;;16.80;99.90;;;;;;5133209;28;20122;-88
2022/06/17 05:30:01;;;;;;;;;;;16.80;99.90;;;;;;5131737;28;19920;-89
2022/06/17 05:32:27;;;;;;;;;;;16.90;99.90;;;;;;5132635;28;20110;-89
2022/06/17 05:34:54;;;;;;;;;;;16.90;99.90;;;;;;5128311;28;19920;-91
2022/06/17 05:37:21;;;;;;;;;;;17.00;99.90;;;;;;5136145;28;19945;-90
2022/06/17 05:39:48;;;;;;;;;;;17.00;99.90;;;;;;5134953;28;19920;-88
2022/06/17 05:42:15;;;;;;;;;;;17.10;99.90;;;;;;5129856;28;19927;-88
2022/06/17 05:44:43;;;;;;;;;;;17.10;99.90;;;;;;5129518;28;19920;-90
2022/06/17 05:47:09;;;;;;;;;;;17.20;99.90;;;;;;5127045;28;19928;-89
2022/06/17 05:49:36;;;;;;;;;;;17.40;99.90;;;;;;5133476;28;19920;-88
2022/06/17 05:52:03;;;;;;;;;;;17.40;99.90;;;;;;5126479;28;19927;-89
2022/06/17 05:54:30;;;;;;;;;;;17.50;99.90;;;;;;5126162;28;19927;-88
2022/06/17 05:56:57;;;;;;;;;;;17.60;99.90;;;;;;5125903;28;19926;-88
2022/06/17 05:59:24;;;;;;;;;;;17.70;99.90;;;;;;5126200;28;19935;-89
2022/06/17 06:01:52;;;;;;;;;;;17.80;99.90;;;;;;5130984;28;19941;-87
2022/06/17 06:04:19;;;;;;;;;;;17.90;99.90;;;;;;5134889;28;19972;-90
2022/06/17 06:06:46;;;;;;;;;;;18.00;99.90;;;;;;5140726;28;19919;-89
2022/06/17 06:09:12;;;;;;;;;;;18.00;99.90;;;;;;5131612;28;20254;-89
2022/06/17 06:11:39;;;;;;;;;;;18.10;99.90;;;;;;5130333;28;19927;-88
2022/06/17 06:14:12;;;;;;;;;;;18.10;99.90;;;;;;5133736;28;19914;-91
2022/06/17 06:16:39;;;;;;;;;;;18.20;99.90;;;;;;5138325;28;19924;-90
2022/06/17 06:19:07;;;;;;;;;;;18.10;99.90;;;;;;5132650;28;19919;-89
2022/06/17 06:21:34;;;;;;;;;;;18.20;99.90;;;;;;5130751;28;19957;-88
2022/06/17 06:24:00;;;;;;;;;;;18.30;99.90;;;;;;5134544;28;19947;-89
2022/06/17 06:26:28;;;;;;;;;;;18.40;99.90;;;;;;5139487;28;19908;-89
2022/06/17 06:28:56;;;;;;;;;;;18.40;99.90;;;;;;5136965;28;19919;-89
2022/06/17 06:31:24;;;;;;;;;;;18.50;99.90;;;;;;5135299;28;20219;-90
2022/06/17 06:33:51;;;;;;;;;;;18.50;99.90;;;;;;5132553;28;20191;-90
2022/06/17 06:36:19;;;;;;;;;;;18.60;99.90;;;;;;5129680;28;19920;-90
2022/06/17 06:38:46;;;;;;;;;;;18.70;99.90;;;;;;5129342;28;19927;-89
2022/06/17 06:41:13;;;;;;;;;;;18.70;99.90;;;;;;5130222;28;19926;-89
2022/06/17 06:43:40;;;;;;;;;;;18.80;99.90;;;;;;5129339;28;19920;-89
2022/06/17 06:46:08;;;;;;;;;;;18.90;99.90;;;;;;5128127;28;19920;-89
2022/06/17 06:48:36;;;;;;;;;;;18.90;99.90;;;;;;5127279;28;19931;-90
2022/06/17 06:51:05;;;;;;;;;;;19.00;99.90;;;;;;5126838;28;19987;-89
2022/06/17 06:53:33;;;;;;;;;;;19.10;99.90;;;;;;5126919;28;19919;-89
2022/06/17 06:56:00;;;;;;;;;;;19.20;99.90;;;;;;5126326;28;19919;-88
2022/06/17 06:58:27;;;;;;;;;;;19.30;99.90;;;;;;5127871;28;19927;-89
2022/06/17 07:00:55;;;;;;;;;;;19.40;99.90;;;;;;5129880;28;19926;-89
2022/06/17 07:03:22;;;;;;;;;;;19.40;99.90;;;;;;5131711;28;19920;-89
2022/06/17 07:05:50;;;;;;;;;;;19.60;99.90;;;;;;5127871;28;19919;-88
2022/06/17 07:08:18;;;;;;;;;;;19.60;99.90;;;;;;5129663;28;19984;-89
2022/06/17 07:10:47;;;;;;;;;;;19.60;99.90;;;;;;5129227;28;19919;-89
2022/06/17 07:13:14;;;;;;;;;;;19.70;99.90;;;;;;5131105;28;19981;-89
2022/06/17 07:15:42;;;;;;;;;;;19.80;99.90;;;;;;5124750;28;19978;-89
2022/06/17 07:18:11;;;;;;;;;;;19.80;99.90;;;;;;5123466;28;19978;-88
2022/06/17 07:20:42;;;;;;;;;;;19.90;99.90;;;;;;5124762;28;20118;-89
2022/06/17 07:23:10;;;;;;;;;;;19.90;99.90;;;;;;5125671;28;19942;-89
2022/06/17 07:25:37;;;;;;;;;;;20.00;99.90;;;;;;5125619;28;19920;-89
2022/06/17 07:28:06;;;;;;;;;;;20.00;99.90;;;;;;5126045;28;19927;-88
2022/06/17 07:30:34;;;;;;;;;;;20.10;99.90;;;;;;5127116;28;19927;-90
2022/06/17 07:33:01;;;;;;;;;;;20.20;99.90;;;;;;5128849;28;19939;-88
2022/06/17 07:35:28;;;;;;;;;;;20.30;99.90;;;;;;5128895;28;19939;-90
2022/06/17 07:40:47;;;;;;;;;;;20.40;99.90;;;;;;5100106;28;19916;-89
2022/06/17 07:43:15;;;;;;;;;;;20.50;99.90;;;;;;5121346;28;20261;-90
2022/06/17 07:45:42;;;;;;;;;;;20.60;99.90;;;;;;5105485;28;19982;-91
2022/06/17 07:48:11;;;;;;;;;;;20.70;99.40;;;;;;5122184;28;20227;-90
2022/06/17 07:50:41;;;;;;;;;;;20.80;99.20;;;;;;5125977;28;19934;-86
2022/06/17 07:53:08;;;;;;;;;;;20.80;98.90;;;;;;5125549;28;19927;-87
2022/06/17 07:55:35;;;;;;;;;;;20.80;99.20;;;;;;5125537;28;19954;-88
2022/06/17 07:58:01;;;;;;;;;;;20.80;99.20;;;;;;5125956;28;20118;-88
2022/06/17 08:00:32;;;;;;;;;;;20.90;98.80;;;;;;5125759;28;19927;-88
2022/06/17 08:02:58;;;;;;;;;;;20.90;98.90;;;;;;5125234;28;19923;-89
2022/06/17 08:05:37;;;;;;;;;;;21.00;98.50;;;;;;5120670;28;20246;-89
2022/06/17 08:08:04;;;;;;;;;;;21.00;98.90;;;;;;5122347;28;19927;-88
2022/06/17 08:10:32;;;;;;;;;;;21.10;97.80;;;;;;5105755;28;19947;-89
2022/06/17 08:12:59;;;;;;;;;;;21.10;98.70;;;;;;5106202;28;19943;-88
2022/06/17 08:15:26;;;;;;;;;;;21.10;98.60;;;;;;5106279;28;20231;-90
2022/06/17 08:17:54;;;;;;;;;;;21.20;98.30;;;;;;5106504;28;20279;-89
2022/06/17 08:20:23;;;;;;;;;;;21.30;98.20;;;;;;5106707;28;20226;-88
2022/06/17 08:22:50;;;;;;;;;;;21.30;97.20;;;;;;5105705;28;19927;-90
2022/06/17 08:25:17;;;;;;;;;;;21.30;96.80;;;;;;5107034;28;19927;-89
2022/06/17 08:27:44;;;;;;;;;;;21.40;97.30;;;;;;5106194;28;19983;-88
2022/06/17 08:30:12;;;;;;;;;;;21.40;97.40;;;;;;5105978;28;19927;-92
2022/06/17 08:32:51;;;;;;;;;;;21.40;96.20;;;;;;5112779;28;19934;-91
2022/06/17 08:35:20;;;;;;;;;;;21.40;97.40;;;;;;5105180;28;19920;-89
2022/06/17 08:37:48;;;;;;;;;;;21.40;96.80;;;;;;5106832;28;19927;-88
2022/06/17 08:40:24;;;;;;;;;;;21.60;97.10;;;;;;5118824;28;19919;-88
2022/06/17 08:42:58;;;;;;;;;;;21.60;96.70;;;;;;5126141;28;19919;-89
2022/06/17 08:48:35;;;;;;;;;;;21.70;95.70;;;;;;5126064;28;19915;-90
2022/06/17 08:51:09;;;;;;;;;;;21.70;95.70;;;;;;5125738;28;19919;-89
2022/06/17 08:53:45;;;;;;;;;;;21.70;96.10;;;;;;5125992;28;19920;-89
2022/06/17 08:56:15;;;;;;;;;;;21.70;96.20;;;;;;5125955;28;19927;-89
2022/06/17 08:58:45;;;;;;;;;;;21.70;96.80;;;;;;5126234;28;19927;-89
2022/06/17 09:01:15;;;;;;;;;;;21.80;96.00;;;;;;5128026;28;19927;-88
2022/06/17 09:03:57;;;;;;;;;;;21.90;96.00;;;;;;5128748;28;19920;-88
2022/06/17 09:06:31;;;;;;;;;;;22.10;96.20;;;;;;5121813;28;20122;-88
2022/06/17 09:09:03;;;;;;;;;;;22.20;96.50;;;;;;5127820;28;19927;-88
2022/06/17 09:11:36;;;;;;;;;;;22.20;95.80;;;;;;5126641;28;19943;-90
2022/06/17 09:14:11;;;;;;;;;;;22.20;95.50;;;;;;5128270;28;19919;-89
2022/06/17 09:16:48;;;;;;;;;;;22.30;95.80;;;;;;5126545;28;19926;-89
2022/06/17 09:19:18;;;;;;;;;;;22.40;95.60;;;;;;5126917;28;19985;-88
2022/06/17 09:22:00;;;;;;;;;;;22.50;95.70;;;;;;5126156;28;19930;-89
2022/06/17 09:24:29;;;;;;;;;;;22.60;95.90;;;;;;5127016;28;19920;-89
2022/06/17 09:26:58;;;;;;;;;;;22.60;95.20;;;;;;5126415;28;19926;-89
2022/06/17 09:29:29;;;;;;;;;;;22.70;94.70;;;;;;5115191;28;19947;-89
2022/06/17 09:31:57;;;;;;;;;;;22.80;95.40;;;;;;5105860;28;19920;-87
2022/06/17 09:34:26;;;;;;;;;;;22.90;94.70;;;;;;5105558;28;20112;-88
2022/06/17 09:36:56;;;;;;;;;;;22.90;94.20;;;;;;5105514;28;19939;-89
2022/06/17 09:39:28;;;;;;;;;;;23.00;93.90;;;;;;5106907;28;20222;-89
2022/06/17 09:41:58;;;;;;;;;;;23.00;93.80;;;;;;5105355;28;19920;-89
2022/06/17 09:44:29;;;;;;;;;;;23.10;93.40;;;;;;5105315;28;19954;-89
2022/06/17 09:47:00;;;;;;;;;;;23.10;94.40;;;;;;5106028;28;19920;-89
2022/06/17 09:49:29;;;;;;;;;;;23.20;94.40;;;;;;5105452;28;19927;-88
2022/06/17 09:51:59;;;;;;;;;;;23.30;94.30;;;;;;5105863;28;20120;-90
2022/06/17 09:54:30;;;;;;;;;;;23.40;93.60;;;;;;5109124;28;20092;-89
2022/06/17 09:56:59;;;;;;;;;;;23.40;93.80;;;;;;5107793;28;19920;-89
2022/06/17 09:59:29;;;;;;;;;;;23.50;93.80;;;;;;5105545;28;19971;-89
2022/06/17 10:01:56;;;;;;;;;;;23.60;93.30;;;;;;5105418;28;19927;-88
2022/06/17 10:04:24;;;;;;;;;;;23.70;92.30;;;;;;5105237;28;19920;-89
2022/06/17 10:06:58;;;;;;;;;;;23.80;92.40;;;;;;5105435;28;19928;-88
2022/06/17 10:09:31;;;;;;;;;;;23.80;92.00;;;;;;5108222;28;19931;-89
2022/06/17 10:12:01;;;;;;;;;;;23.80;92.70;;;;;;5114766;28;19939;-89
2022/06/17 10:14:37;;;;;;;;;;;23.80;92.90;;;;;;5114003;28;19979;-89
2022/06/17 10:20:02;;;;;;;;;;;24.00;92.50;;;;;;5110380;28;19923;-91
2022/06/17 10:22:36;;;;;;;;;;;24.10;91.90;;;;;;5109569;28;19924;-90
2022/06/17 10:25:14;;;;;;;;;;;24.20;91.50;;;;;;5109749;28;19920;-91
2022/06/17 10:27:47;;;;;;;;;;;24.30;91.60;;;;;;5111152;28;19921;-91
2022/06/17 10:30:14;;;;;;;;;;;24.40;92.10;;;;;;5111680;28;19920;-88
2022/06/17 10:32:42;;;;;;;;;;;24.50;91.70;;;;;;5109523;28;20215;-89
2022/06/17 10:35:14;;;;;;;;;;;24.50;91.40;;;;;;5107178;28;19920;-91
2022/06/17 10:37:41;;;;;;;;;;;24.60;91.60;;;;;;5104574;28;20289;-89
2022/06/17 10:40:10;;;;;;;;;;;24.70;92.00;;;;;;5104674;28;19944;-90
2022/06/17 10:42:37;;;;;;;;;;;24.80;92.30;;;;;;5106663;28;20382;-88
2022/06/17 10:45:04;;;;;;;;;;;25.00;91.50;;;;;;5105978;28;19920;-89
2022/06/17 10:47:36;;;;;;;;;;;25.20;90.40;;;;;;5106237;28;19924;-91
2022/06/17 10:50:05;;;;;;;;;;;25.30;90.20;;;;;;5115175;28;19915;-88
2022/06/17 10:52:33;;;;;;;;;;;25.50;90.50;;;;;;5107392;28;19920;-90
2022/06/17 10:55:03;;;;;;;;;;;25.70;89.90;;;;;;5112195;28;19924;-90
2022/06/17 10:57:32;;;;;;;;;;;25.90;90.80;;;;;;5109943;28;19983;-91
2022/06/17 10:59:59;;;;;;;;;;;26.10;89.10;;;;;;5109503;28;19920;-89
2022/06/17 11:02:29;;;;;;;;;;;26.10;90.60;;;;;;5109746;28;19920;-89
2022/06/17 11:04:56;;;;;;;;;;;26.30;87.30;;;;;;5107871;28;19981;-89
2022/06/17 11:07:27;;;;;;;;;;;26.30;86.50;;;;;;5120183;28;19916;-89
2022/06/17 11:09:55;;;;;;;;;;;26.40;87.50;;;;;;5109610;28;19965;-89
2022/06/17 11:12:24;;;;;;;;;;;26.40;86.60;;;;;;5107249;28;19920;-89
2022/06/17 11:14:54;;;;;;;;;;;26.50;86.40;;;;;;5107870;28;20149;-89
2022/06/17 11:17:23;;;;;;;;;;;26.50;84.00;;;;;;5108644;28;19915;-89
2022/06/17 11:20:05;;;;;;;;;;;26.60;84.20;;;;;;5107614;28;19944;-89
2022/06/17 11:22:34;;;;;;;;;;;26.60;85.40;;;;;;5107982;28;19920;-88
2022/06/17 11:25:03;;;;;;;;;;;26.80;85.10;;;;;;5107521;28;20151;-89
2022/06/17 11:27:32;;;;;;;;;;;26.90;83.70;;;;;;5109087;28;19920;-89
2022/06/17 11:30:19;;;;;;;;;;;26.90;83.80;;;;;;5110034;28;20253;-88
2022/06/17 11:32:49;;;;;;;;;;;27.00;83.20;;;;;;5108869;28;19940;-90
2022/06/17 11:35:26;;;;;;;;;;;27.10;81.70;;;;;;5107177;28;19920;-90
2022/06/17 11:37:57;;;;;;;;;;;27.10;80.60;;;;;;5109765;28;19928;-88
2022/06/17 11:40:27;;;;;;;;;;;27.20;82.60;;;;;;5106594;28;19979;-88
2022/06/17 11:42:58;;;;;;;;;;;27.30;81.60;;;;;;5106920;28;19979;-88
2022/06/17 11:45:31;;;;;;;;;;;27.50;80.40;;;;;;5107456;28;19924;-89
2022/06/17 11:48:00;;;;;;;;;;;27.50;79.60;;;;;;5108368;28;19920;-89
2022/06/17 11:50:30;;;;;;;;;;;27.60;78.30;;;;;;5106977;28;19944;-88
2022/06/17 11:53:01;;;;;;;;;;;27.60;80.50;;;;;;5108186;28;20167;-89
2022/06/17 11:55:29;;;;;;;;;;;27.80;78.90;;;;;;5107019;28;19920;-88
2022/06/17 11:57:55;;;;;;;;;;;27.90;79.00;;;;;;5107323;28;19920;-90
2022/06/17 12:00:28;;;;;;;;;;;28.00;79.10;;;;;;5107284;28;19920;-89
2022/06/17 12:02:57;;;;;;;;;;;28.10;78.10;;;;;;5106549;28;19920;-88
2022/06/17 12:05:24;;;;;;;;;;;28.10;77.70;;;;;;5107388;28;20215;-92
2022/06/17 12:07:55;;;;;;;;;;;28.10;78.20;;;;;;5106797;28;19927;-89
2022/06/17 12:10:29;;;;;;;;;;;28.10;77.70;;;;;;5106671;28;19939;-90
2022/06/17 12:13:00;;;;;;;;;;;28.10;77.10;;;;;;5107616;28;19958;-88
2022/06/17 12:15:30;;;;;;;;;;;28.10;78.10;;;;;;5110096;28;19916;-89
2022/06/17 12:17:58;;;;;;;;;;;28.30;77.60;;;;;;5107167;28;19920;-88
2022/06/17 12:20:33;;;;;;;;;;;28.50;79.40;;;;;;5105840;28;19943;-89
2022/06/17 12:23:03;;;;;;;;;;;28.60;75.20;;;;;;5107595;28;19924;-88
2022/06/17 12:25:36;;;;;;;;;;;28.60;75.20;;;;;;5107960;28;19920;-89
2022/06/17 12:28:07;;;;;;;;;;;28.50;75.00;;;;;;5108525;28;20135;-88
2022/06/17 12:30:38;;;;;;;;;;;28.60;76.70;;;;;;5108000;28;19924;-89
2022/06/17 12:33:07;;;;;;;;;;;28.60;75.50;;;;;;5109600;28;19920;-89
2022/06/17 12:35:36;;;;;;;;;;;28.70;74.60;;;;;;5107297;28;19927;-88
2022/06/17 12:38:06;;;;;;;;;;;28.80;73.90;;;;;;5107664;28;19920;-89
2022/06/17 12:40:35;;;;;;;;;;;29.20;74.90;;;;;;5106095;28;19920;-88
2022/06/17 12:43:05;;;;;;;;;;;29.40;75.30;;;;;;5110496;28;19920;-90
2022/06/17 12:45:36;;;;;;;;;;;29.50;72.20;;;;;;5108745;28;19926;-88
2022/06/17 12:48:13;;;;;;;;;;;29.60;72.00;;;;;;5107295;28;19920;-89
2022/06/17 12:53:35;;;;;;;;;;;29.80;71.40;;;;;;5112463;28;20311;-91
2022/06/17 12:56:09;;;;;;;;;;;30.00;70.80;;;;;;5114823;28;19928;-89
2022/06/17 12:58:46;;;;;;;;;;;30.10;70.40;;;;;;5115312;28;19912;-89
2022/06/17 13:01:16;;;;;;;;;;;30.10;69.40;;;;;;5113593;28;19928;-90
2022/06/17 13:04:09;;;;;;;;;;;30.30;72.20;;;;;;5109363;28;20135;-90
2022/06/17 13:06:42;;;;;;;;;;;30.40;71.60;;;;;;5094998;28;19920;-89
2022/06/17 13:09:14;;;;;;;;;;;30.60;70.10;;;;;;5111111;28;20122;-89
2022/06/17 13:11:44;;;;;;;;;;;30.90;69.20;;;;;;5111889;28;19920;-89
2022/06/17 13:14:16;;;;;;;;;;;30.90;68.90;;;;;;5126513;28;19931;-90
2022/06/17 13:16:47;;;;;;;;;;;30.90;70.10;;;;;;5132724;28;19958;-90
2022/06/17 13:19:18;;;;;;;;;;;31.00;67.40;;;;;;5132459;28;19927;-91
2022/06/17 13:21:49;;;;;;;;;;;31.00;66.30;;;;;;5134420;28;19919;-89
2022/06/17 13:24:21;;;;;;;;;;;31.10;67.10;;;;;;5131412;28;19920;-88
2022/06/17 13:26:51;;;;;;;;;;;30.90;65.80;;;;;;5130657;28;19920;-88
2022/06/17 13:29:22;;;;;;;;;;;30.70;67.50;;;;;;5127390;28;19920;-89
2022/06/17 13:31:51;;;;;;;;;;;30.60;68.60;;;;;;5127849;28;19919;-88
2022/06/17 13:34:20;;;;;;;;;;;30.70;67.30;;;;;;5128839;28;19943;-89
2022/06/17 13:36:54;;;;;;;;;;;30.90;66.20;;;;;;5132684;28;20273;-89
2022/06/17 13:39:23;;;;;;;;;;;31.00;66.80;;;;;;5133563;28;19922;-90
2022/06/17 13:44:21;;;;;;;;;;;31.30;66.90;;;;;;5082062;28;19920;-68
2022/06/17 13:46:52;;;;;;;;;;;31.30;65.80;;;;;;5091830;28;19979;-68
2022/06/17 13:49:23;;;;;;;;;;;31.10;65.20;;;;;;5090779;28;19924;-68
2022/06/17 13:51:55;;;;;;;;;;;31.20;66.00;;;;;;5103839;28;20176;-68
2022/06/17 13:54:26;;;;;;;;;;;31.30;66.00;;;;;;5117107;28;19947;-68
2022/06/17 13:56:54;;;;;;;;;;;31.30;66.00;;;;;;5103144;28;19959;-68
2022/06/17 13:59:31;;;;;;;;;;;31.50;66.20;;;;;;5103454;28;19952;-68
2022/06/17 14:02:25;;;;;;;;;;;31.70;65.60;;;;;;5103082;28;19967;-67
2022/06/17 14:05:11;;;;;;;;;;;31.80;64.30;;;;;;5047052;28;19959;-67
2022/06/17 14:07:55;;;;;;;;;;;31.80;63.20;;;;;;5082788;28;19920;-67
2022/06/17 14:10:30;;;;;;;;;;;31.90;64.10;;;;;;5082856;28;19928;-67
2022/06/17 14:12:57;;;;;;;;;;;32.10;63.30;;;;;;5082556;28;20171;-68
2022/06/17 14:15:28;;;;;;;;;;;32.10;62.60;;;;;;5082808;28;19920;-68
2022/06/17 14:17:57;;;;;;;;;;;32.00;62.90;;;;;;5082755;28;19996;-68
2022/06/17 14:20:29;;;;;;;;;;;31.90;62.70;;;;;;5092910;28;19920;-68
2022/06/17 14:23:05;;;;;;;;;;;32.00;63.30;;;;;;5103273;28;20145;-68
2022/06/17 14:26:01;;;;;;;;;;;31.80;63.20;;;;;;5102861;28;19920;-67
2022/06/17 14:28:35;;;;;;;;;;;31.90;63.80;;;;;;5071385;28;19943;-68
2022/06/17 14:31:10;;;;;;;;;;;31.90;62.70;;;;;;5106380;28;19963;-67
2022/06/17 14:33:39;;;;;;;;;;;32.10;62.40;;;;;;5106857;28;19920;-68
2022/06/17 14:36:09;;;;;;;;;;;32.20;62.20;;;;;;5106405;28;19920;-68
2022/06/17 14:38:40;;;;;;;;;;;32.20;62.10;;;;;;5107257;28;19963;-68
2022/06/17 14:43:55;;;;;;;;;;;32.10;62.40;;;;;;5106570;28;19954;-68
2022/06/17 14:46:22;;;;;;;;;;;32.10;61.50;;;;;;5106599;28;19942;-68